Time;durP1;ratioP1;P1;durP2;ratioP2;P2;SDS_P1;SDS_P2;PMS_P1;PMS_P2;Temp;Humidity;BMP_temperature;BMP_pressure;BME280_temperature;BME280_humidity;BME280_pressure;Samples;Min_cycle;Max_cycle;Signal;HPM_P1;HPM_P2
2023/06/21 00:01:38;;;;;;;28.60;25.75;;;20.10;99.90;;;;;;4818040;29;20045;-69
2023/06/21 00:04:05;;;;;;;25.00;22.70;;;20.10;99.90;;;;;;4831413;29;20575;-68
2023/06/21 00:06:34;;;;;;;20.25;18.55;;;20.00;99.90;;;;;;4839232;29;20899;-69
2023/06/21 00:09:04;;;;;;;20.85;18.85;;;19.90;99.90;;;;;;4845737;29;20516;-69
2023/06/21 00:11:31;;;;;;;21.25;19.23;;;19.90;99.90;;;;;;4825862;29;20044;-68
2023/06/21 00:13:57;;;;;;;22.95;20.92;;;19.80;99.90;;;;;;4832797;29;20045;-69
2023/06/21 00:16:24;;;;;;;19.13;17.42;;;19.80;99.90;;;;;;4830606;29;20048;-69
2023/06/21 00:18:50;;;;;;;19.67;17.88;;;19.70;99.90;;;;;;4836523;29;20429;-69
2023/06/21 00:21:16;;;;;;;19.50;17.80;;;19.70;99.90;;;;;;4833511;29;20032;-69
2023/06/21 00:23:43;;;;;;;15.75;14.25;;;19.60;99.90;;;;;;4832888;29;20052;-69
2023/06/21 00:26:10;;;;;;;13.23;11.93;;;19.50;99.90;;;;;;4841530;29;20044;-69
2023/06/21 00:28:36;;;;;;;13.38;12.20;;;19.50;99.90;;;;;;4858090;29;20045;-69
2023/06/21 00:31:08;;;;;;;11.13;10.13;;;19.40;99.90;;;;;;4838698;29;20036;-69
2023/06/21 00:33:34;;;;;;;10.45;9.55;;;19.30;99.90;;;;;;4832987;29;20060;-69
2023/06/21 00:36:01;;;;;;;10.27;9.38;;;19.30;99.90;;;;;;4816658;29;20037;-68
2023/06/21 00:38:27;;;;;;;10.88;9.88;;;19.20;99.90;;;;;;4819964;29;20732;-69
2023/06/21 00:40:53;;;;;;;10.50;9.50;;;19.20;99.90;;;;;;4837714;29;20440;-69
2023/06/21 00:43:20;;;;;;;7.72;7.13;;;19.10;99.90;;;;;;4823473;29;20044;-69
2023/06/21 00:45:48;;;;;;;9.73;8.85;;;19.10;99.90;;;;;;4841199;29;20369;-69
2023/06/21 00:48:14;;;;;;;10.48;9.68;;;19.10;99.90;;;;;;4828623;29;20045;-69
2023/06/21 00:50:41;;;;;;;11.07;10.07;;;19.10;99.90;;;;;;4819445;29;20045;-69
2023/06/21 00:53:08;;;;;;;9.60;8.70;;;19.00;99.90;;;;;;4837250;29;20539;-69
2023/06/21 00:55:35;;;;;;;12.52;11.32;;;19.00;99.90;;;;;;4828034;29;20060;-69
2023/06/21 00:58:03;;;;;;;9.73;8.93;;;19.00;99.90;;;;;;4836634;29;20371;-69
2023/06/21 01:00:29;;;;;;;9.63;8.65;;;18.90;99.90;;;;;;4819217;29;20040;-69
2023/06/21 01:02:58;;;;;;;9.85;8.95;;;18.90;99.90;;;;;;4844720;29;20045;-69
2023/06/21 01:05:26;;;;;;;9.38;8.57;;;18.90;99.90;;;;;;4836440;29;20137;-69
2023/06/21 01:08:14;;;;;;;8.65;7.95;;;18.90;99.90;;;;;;4839672;29;20037;-69
2023/06/21 01:10:51;;;;;;;7.55;6.85;;;18.80;99.90;;;;;;4834315;29;20521;-69
2023/06/21 01:13:38;;;;;;;9.45;8.60;;;18.80;99.90;;;;;;4834738;29;20033;-69
2023/06/21 01:16:14;;;;;;;11.95;10.90;;;18.80;99.90;;;;;;4830139;29;20028;-69
2023/06/21 01:18:45;;;;;;;9.45;8.55;;;18.80;99.90;;;;;;4833394;29;20096;-69
2023/06/21 01:21:24;;;;;;;9.77;8.95;;;18.80;99.90;;;;;;4842591;29;20493;-69
2023/06/21 01:24:20;;;;;;;11.02;9.75;;;18.90;99.90;;;;;;4841100;29;20416;-69
2023/06/21 01:27:03;;;;;;;11.90;10.90;;;18.90;99.90;;;;;;4833577;29;20040;-69
2023/06/21 01:29:34;;;;;;;11.05;9.98;;;19.00;99.90;;;;;;4834494;29;20590;-69
2023/06/21 01:32:02;;;;;;;11.68;10.50;;;19.00;99.90;;;;;;4817213;29;20037;-69
2023/06/21 01:34:31;;;;;;;10.13;9.23;;;19.10;99.90;;;;;;4829001;29;20393;-69
2023/06/21 01:36:58;;;;;;;10.82;9.75;;;19.00;99.90;;;;;;4817697;29;20510;-69
2023/06/21 01:39:28;;;;;;;12.63;11.43;;;19.10;99.90;;;;;;4824650;29;20041;-69
2023/06/21 01:41:55;;;;;;;13.50;12.35;;;19.10;99.90;;;;;;4844359;29;20560;-69
2023/06/21 01:44:22;;;;;;;14.57;13.23;;;19.10;99.90;;;;;;4837879;29;20052;-69
2023/06/21 01:46:51;;;;;;;15.90;14.30;;;19.10;99.90;;;;;;4814085;29;20040;-69
2023/06/21 01:49:19;;;;;;;14.05;12.77;;;19.10;99.90;;;;;;4833887;29;20479;-69
2023/06/21 01:51:45;;;;;;;14.70;13.32;;;19.10;99.90;;;;;;4818179;29;20052;-69
2023/06/21 01:54:15;;;;;;;15.95;14.50;;;19.20;99.90;;;;;;4814275;29;20114;-69
2023/06/21 01:56:44;;;;;;;16.90;15.20;;;19.20;99.90;;;;;;4830310;29;20053;-69
2023/06/21 01:59:11;;;;;;;15.98;14.52;;;19.20;99.90;;;;;;4843227;29;20685;-69
2023/06/21 02:01:40;;;;;;;18.98;17.17;;;19.20;99.90;;;;;;4828745;29;20052;-69
2023/06/21 02:04:07;;;;;;;15.98;14.60;;;19.20;99.90;;;;;;4832115;29;20025;-69
2023/06/21 02:06:35;;;;;;;17.83;16.25;;;19.20;99.90;;;;;;4826627;29;20061;-69
2023/06/21 02:09:05;;;;;;;17.08;15.48;;;19.20;99.90;;;;;;4830499;29;20044;-69
2023/06/21 02:11:32;;;;;;;16.33;14.93;;;19.20;99.90;;;;;;4800335;29;20032;-69
2023/06/21 02:14:00;;;;;;;22.20;18.67;;;19.20;99.90;;;;;;4824131;29;20107;-69
2023/06/21 02:16:31;;;;;;;20.00;18.10;;;19.20;99.90;;;;;;4810371;29;20041;-69
2023/06/21 02:19:01;;;;;;;15.47;14.07;;;19.20;99.90;;;;;;4829318;29;20052;-69
2023/06/21 02:21:27;;;;;;;24.67;22.27;;;19.20;99.90;;;;;;4826749;29;20052;-69
2023/06/21 02:23:53;;;;;;;25.52;23.08;;;19.20;99.90;;;;;;4818092;29;20041;-68
2023/06/21 02:26:20;;;;;;;23.85;21.58;;;19.20;99.90;;;;;;4815731;29;20494;-69
2023/06/21 02:28:46;;;;;;;22.25;20.25;;;19.20;99.90;;;;;;4833025;29;20075;-69
2023/06/21 02:31:13;;;;;;;28.40;25.65;;;19.20;99.90;;;;;;4833438;29;20259;-69
2023/06/21 02:33:42;;;;;;;25.27;22.48;;;19.20;99.90;;;;;;4813624;29;20041;-69
2023/06/21 02:36:08;;;;;;;23.70;21.60;;;19.20;99.90;;;;;;4817061;29;20519;-68
2023/06/21 02:38:35;;;;;;;26.10;23.60;;;19.10;99.90;;;;;;4841564;29;20055;-68
2023/06/21 02:41:01;;;;;;;21.25;19.30;;;19.10;99.90;;;;;;4843071;29;20508;-69
2023/06/21 02:43:27;;;;;;;25.80;23.20;;;19.10;99.90;;;;;;4832812;29;20041;-68
2023/06/21 02:45:56;;;;;;;30.35;27.52;;;19.10;99.90;;;;;;4795382;29;20040;-68
2023/06/21 02:48:22;;;;;;;26.40;24.00;;;19.10;99.90;;;;;;4818277;29;20041;-69
2023/06/21 02:50:48;;;;;;;29.77;26.77;;;19.10;99.90;;;;;;4817473;29;20037;-69
2023/06/21 02:53:15;;;;;;;28.23;25.45;;;19.10;99.90;;;;;;4832850;29;20021;-69
2023/06/21 02:55:42;;;;;;;26.13;23.63;;;19.10;99.90;;;;;;4833287;29;21006;-69
2023/06/21 02:58:08;;;;;;;26.00;23.50;;;19.10;99.90;;;;;;4843416;29;20041;-69
2023/06/21 03:00:37;;;;;;;31.23;28.08;;;19.10;99.90;;;;;;4843479;29;20496;-69
2023/06/21 03:03:03;;;;;;;29.65;26.67;;;19.10;99.90;;;;;;4833997;29;20036;-69
2023/06/21 03:05:30;;;;;;;34.92;30.75;;;19.10;99.90;;;;;;4795250;29;20048;-69
2023/06/21 03:07:57;;;;;;;30.95;27.67;;;19.10;99.90;;;;;;4831418;29;20037;-69
2023/06/21 03:10:23;;;;;;;26.55;23.70;;;19.10;99.90;;;;;;4816183;29;20033;-68
2023/06/21 03:12:50;;;;;;;38.80;33.60;;;19.10;99.90;;;;;;4833720;29;20037;-69
2023/06/21 03:15:20;;;;;;;38.97;33.80;;;19.10;99.90;;;;;;4818188;29;20504;-69
2023/06/21 03:17:46;;;;;;;34.70;31.13;;;19.10;99.90;;;;;;4826174;29;20036;-69
2023/06/21 03:20:14;;;;;;;39.42;33.22;;;19.00;99.90;;;;;;4833544;29;20041;-69
2023/06/21 03:22:42;;;;;;;36.40;31.17;;;19.00;99.90;;;;;;4817129;29;20049;-69
2023/06/21 03:25:13;;;;;;;48.33;40.33;;;19.00;99.90;;;;;;4826603;29;21293;-69
2023/06/21 03:27:41;;;;;;;37.08;32.58;;;19.00;99.90;;;;;;4832064;29;20049;-69
2023/06/21 03:30:12;;;;;;;36.42;30.92;;;19.00;99.90;;;;;;4833910;29;20052;-69
2023/06/21 03:32:47;;;;;;;36.78;32.78;;;19.00;99.90;;;;;;4841162;29;20040;-69
2023/06/21 03:35:16;;;;;;;37.70;33.63;;;18.90;99.90;;;;;;4820313;29;20400;-68
2023/06/21 03:37:43;;;;;;;38.97;32.80;;;18.90;99.90;;;;;;4845735;29;20055;-69
2023/06/21 03:40:13;;;;;;;35.90;31.83;;;18.90;99.90;;;;;;4854243;29;20587;-69
2023/06/21 03:42:44;;;;;;;32.45;28.90;;;18.90;99.90;;;;;;4836643;29;20043;-69
2023/06/21 03:45:13;;;;;;;40.53;33.63;;;19.00;99.90;;;;;;4829352;29;20400;-69
2023/06/21 03:47:40;;;;;;;37.60;33.45;;;19.00;99.90;;;;;;4838714;29;20045;-69
2023/06/21 03:50:08;;;;;;;38.03;33.85;;;19.00;99.90;;;;;;4841380;29;21653;-69
2023/06/21 03:52:37;;;;;;;31.02;27.83;;;19.00;99.90;;;;;;4848434;29;20039;-69
2023/06/21 03:55:06;;;;;;;35.40;31.60;;;19.10;99.90;;;;;;4824225;29;20036;-68
2023/06/21 03:57:32;;;;;;;29.65;26.48;;;19.10;99.90;;;;;;4841748;29;20021;-68
2023/06/21 03:59:58;;;;;;;29.63;26.60;;;19.10;99.90;;;;;;4835044;29;20516;-68
2023/06/21 04:02:26;;;;;;;29.42;26.52;;;19.10;99.90;;;;;;4822243;29;21332;-68
2023/06/21 04:04:54;;;;;;;30.00;26.95;;;19.10;99.90;;;;;;4815213;29;21180;-68
2023/06/21 04:07:23;;;;;;;30.80;27.60;;;19.10;99.90;;;;;;4836481;29;20037;-68
2023/06/21 04:09:49;;;;;;;32.83;29.25;;;19.10;99.90;;;;;;4854017;29;20036;-68
2023/06/21 04:12:15;;;;;;;36.33;31.75;;;19.10;99.90;;;;;;4831044;29;20064;-68
2023/06/21 04:14:42;;;;;;;33.03;28.63;;;19.10;99.90;;;;;;4807462;29;20699;-68
2023/06/21 04:17:08;;;;;;;38.40;32.35;;;19.10;99.90;;;;;;4837235;29;20029;-68
2023/06/21 04:19:34;;;;;;;40.20;34.47;;;19.10;99.90;;;;;;4837221;29;20056;-68
2023/06/21 04:22:01;;;;;;;33.13;29.48;;;19.20;99.90;;;;;;4835747;29;20108;-68
2023/06/21 04:24:27;;;;;;;37.42;31.20;;;19.20;99.90;;;;;;4829638;29;20041;-68
2023/06/21 04:26:55;;;;;;;35.50;31.67;;;19.20;99.90;;;;;;4803284;29;20033;-68
2023/06/21 04:29:22;;;;;;;38.90;34.10;;;19.20;99.90;;;;;;4829468;29;20041;-68
2023/06/21 04:31:52;;;;;;;35.50;31.65;;;19.30;99.90;;;;;;4846687;29;20040;-68
2023/06/21 04:34:19;;;;;;;38.17;34.08;;;19.30;99.90;;;;;;4835660;29;20036;-68
2023/06/21 04:36:47;;;;;;;33.20;29.75;;;19.30;99.90;;;;;;4832925;29;20044;-68
2023/06/21 04:39:17;;;;;;;34.38;30.67;;;19.40;99.90;;;;;;4833467;29;20049;-68
2023/06/21 04:41:47;;;;;;;48.65;40.17;;;19.40;99.90;;;;;;4834670;29;20044;-68
2023/06/21 04:44:17;;;;;;;42.28;36.10;;;19.50;99.90;;;;;;4816608;29;20032;-68
2023/06/21 04:46:46;;;;;;;38.13;34.05;;;19.40;99.90;;;;;;4841020;29;20500;-68
2023/06/21 04:49:12;;;;;;;36.33;32.22;;;19.50;99.90;;;;;;4843716;29;20037;-69
2023/06/21 04:51:39;;;;;;;37.10;31.85;;;19.50;99.90;;;;;;4836391;29;20041;-69
2023/06/21 04:54:06;;;;;;;37.53;32.65;;;19.50;99.90;;;;;;4828851;29;20052;-69
2023/06/21 04:56:32;;;;;;;35.70;30.52;;;19.50;99.90;;;;;;4828104;29;20067;-68
2023/06/21 04:58:58;;;;;;;35.35;31.52;;;19.60;99.90;;;;;;4835373;29;20629;-69
2023/06/21 05:01:25;;;;;;;44.25;39.45;;;19.60;99.90;;;;;;4833906;29;20437;-69
2023/06/21 05:03:52;;;;;;;39.03;34.83;;;19.60;99.90;;;;;;4836403;29;20060;-68
2023/06/21 05:06:22;;;;;;;36.38;32.55;;;19.70;99.90;;;;;;4840635;29;20408;-68
2023/06/21 05:08:49;;;;;;;34.65;31.05;;;19.70;99.90;;;;;;4840779;29;20580;-68
2023/06/21 05:11:15;;;;;;;34.03;30.45;;;19.80;99.90;;;;;;4834090;29;20025;-68
2023/06/21 05:13:42;;;;;;;39.20;35.20;;;19.90;99.90;;;;;;4829912;29;20051;-69
2023/06/21 05:16:08;;;;;;;38.53;34.45;;;19.90;99.90;;;;;;4831765;29;20536;-68
2023/06/21 05:18:35;;;;;;;43.17;38.15;;;20.00;99.90;;;;;;4833037;29;20444;-68
2023/06/21 05:21:02;;;;;;;39.80;35.58;;;20.00;99.90;;;;;;4834690;29;20493;-69
2023/06/21 05:23:28;;;;;;;39.30;35.28;;;19.90;99.90;;;;;;4841864;29;20478;-68
2023/06/21 05:25:54;;;;;;;40.88;36.15;;;19.90;99.90;;;;;;4808923;29;20736;-68
2023/06/21 05:28:21;;;;;;;35.15;31.52;;;20.00;99.90;;;;;;4841526;29;20625;-68
2023/06/21 05:30:47;;;;;;;38.22;33.13;;;20.00;99.90;;;;;;4835211;29;20060;-68
2023/06/21 05:33:14;;;;;;;34.63;30.92;;;20.00;99.90;;;;;;4835686;29;20029;-68
2023/06/21 05:35:40;;;;;;;41.92;36.85;;;20.10;99.90;;;;;;4829552;29;20205;-68
2023/06/21 05:38:08;;;;;;;40.65;35.33;;;20.10;99.90;;;;;;4835991;29;20044;-68
2023/06/21 05:40:35;;;;;;;40.75;36.50;;;20.10;99.90;;;;;;4837504;29;20037;-68
2023/06/21 05:43:01;;;;;;;40.90;36.47;;;20.20;99.90;;;;;;4846701;29;20045;-68
2023/06/21 05:45:28;;;;;;;41.00;36.53;;;20.20;99.90;;;;;;4807226;29;20040;-69
2023/06/21 05:47:57;;;;;;;41.22;36.92;;;20.30;99.90;;;;;;4834247;29;20044;-69
2023/06/21 05:50:24;;;;;;;41.60;37.35;;;20.40;99.90;;;;;;4835361;29;20041;-67
2023/06/21 05:52:50;;;;;;;38.85;34.85;;;20.50;99.90;;;;;;4835464;29;20051;-69
2023/06/21 05:55:16;;;;;;;45.45;40.78;;;20.60;99.90;;;;;;4827647;29;20056;-68
2023/06/21 05:57:43;;;;;;;46.80;41.90;;;20.80;99.90;;;;;;4835401;29;20056;-66
2023/06/21 06:00:11;;;;;;;40.92;36.83;;;20.80;99.90;;;;;;4842549;29;20047;-67
2023/06/21 06:02:40;;;;;;;39.25;35.53;;;20.90;99.90;;;;;;4843356;29;20051;-68
2023/06/21 06:05:07;;;;;;;39.28;35.35;;;21.10;99.90;;;;;;4833261;29;20041;-70
2023/06/21 06:07:33;;;;;;;41.90;37.75;;;21.10;99.90;;;;;;4833578;29;20625;-70
2023/06/21 06:09:59;;;;;;;45.53;40.92;;;21.10;99.90;;;;;;4816495;29;20397;-68
2023/06/21 06:12:26;;;;;;;46.72;42.13;;;21.20;99.90;;;;;;4833624;29;20401;-69
2023/06/21 06:14:52;;;;;;;43.20;39.08;;;21.30;99.90;;;;;;4825360;29;20052;-68
2023/06/21 06:17:19;;;;;;;49.47;44.47;;;21.50;99.90;;;;;;4833642;29;20492;-69
2023/06/21 06:19:45;;;;;;;39.25;35.58;;;21.60;99.90;;;;;;4839244;29;20556;-73
2023/06/21 06:22:11;;;;;;;40.28;36.35;;;21.80;99.90;;;;;;4840321;29;20037;-65
2023/06/21 06:24:37;;;;;;;39.75;36.05;;;22.00;99.90;;;;;;4829145;29;20037;-66
2023/06/21 06:27:04;;;;;;;37.05;33.60;;;22.30;99.90;;;;;;4834402;29;20071;-66
2023/06/21 06:29:31;;;;;;;29.50;26.90;;;22.50;99.90;;;;;;4831586;29;20059;-66
2023/06/21 06:31:57;;;;;;;37.38;33.67;;;22.50;99.90;;;;;;4817691;29;20505;-66
2023/06/21 06:34:24;;;;;;;38.10;34.63;;;22.80;99.90;;;;;;4827241;29;20037;-66
2023/06/21 06:36:50;;;;;;;34.75;31.70;;;22.90;99.90;;;;;;4835006;29;20041;-67
2023/06/21 06:39:16;;;;;;;32.20;29.40;;;22.80;99.90;;;;;;4844866;29;20253;-66
2023/06/21 06:41:42;;;;;;;30.58;27.77;;;22.80;99.90;;;;;;4843402;29;20033;-67
2023/06/21 06:44:15;;;;;;;32.95;29.75;;;22.90;99.90;;;;;;4816084;29;20072;-67
2023/06/21 06:46:42;;;;;;;35.08;31.98;;;22.90;99.90;;;;;;4828123;29;20044;-66
2023/06/21 06:49:08;;;;;;;31.17;28.40;;;22.80;99.90;;;;;;4834834;29;20046;-66
2023/06/21 06:51:34;;;;;;;28.13;25.63;;;22.70;99.90;;;;;;4817106;29;20045;-66
2023/06/21 06:54:00;;;;;;;33.45;30.55;;;22.60;99.90;;;;;;4830124;29;20033;-67
2023/06/21 06:56:27;;;;;;;31.30;28.50;;;22.60;99.90;;;;;;4832765;29;20053;-66
2023/06/21 06:58:53;;;;;;;36.40;33.25;;;22.60;99.90;;;;;;4856680;29;20037;-66
2023/06/21 07:01:20;;;;;;;36.22;32.88;;;22.70;99.90;;;;;;4841047;29;21343;-66
2023/06/21 07:03:47;;;;;;;29.60;26.92;;;22.70;99.90;;;;;;4813523;29;20048;-66
2023/06/21 07:06:13;;;;;;;26.65;24.38;;;22.70;99.90;;;;;;4831130;29;20694;-66
2023/06/21 07:08:44;;;;;;;32.70;29.95;;;22.80;99.90;;;;;;4834208;29;20032;-66
2023/06/21 07:11:11;;;;;;;34.25;31.35;;;22.90;99.90;;;;;;4836223;29;20049;-66
2023/06/21 07:13:37;;;;;;;30.88;28.08;;;23.10;99.90;;;;;;4833199;29;20044;-66
2023/06/21 07:16:04;;;;;;;32.42;29.63;;;23.10;99.90;;;;;;4838453;29;20037;-66
2023/06/21 07:18:30;;;;;;;33.45;30.45;;;23.10;99.90;;;;;;4847492;29;20112;-66
2023/06/21 07:20:56;;;;;;;30.50;27.88;;;23.00;99.90;;;;;;4840157;29;20550;-66
2023/06/21 07:23:22;;;;;;;38.95;35.55;;;23.20;99.90;;;;;;4832623;29;20659;-67
2023/06/21 07:25:49;;;;;;;30.08;27.58;;;23.40;99.90;;;;;;4831363;29;20662;-67
2023/06/21 07:28:15;;;;;;;34.80;31.75;;;23.50;99.90;;;;;;4838726;29;20040;-67
2023/06/21 07:30:42;;;;;;;37.72;34.53;;;23.60;99.90;;;;;;4823153;29;20036;-67
2023/06/21 07:33:08;;;;;;;33.75;30.92;;;23.60;99.90;;;;;;4842251;29;20029;-67
2023/06/21 07:35:35;;;;;;;34.88;31.90;;;23.70;99.90;;;;;;4839238;29;20037;-66
2023/06/21 07:38:02;;;;;;;42.30;38.58;;;23.90;99.90;;;;;;4844984;29;20041;-67
2023/06/21 07:40:29;;;;;;;34.33;31.35;;;24.00;99.90;;;;;;4834724;29;20044;-67
2023/06/21 07:42:55;;;;;;;39.45;36.17;;;23.90;99.90;;;;;;4835484;29;20029;-66
2023/06/21 07:45:21;;;;;;;37.00;33.90;;;23.70;99.90;;;;;;4829336;29;20409;-66
2023/06/21 07:47:47;;;;;;;43.75;40.05;;;23.60;99.90;;;;;;4835753;29;20041;-67
2023/06/21 07:50:14;;;;;;;48.88;44.72;;;23.70;99.90;;;;;;4834245;29;20489;-67
2023/06/21 07:52:40;;;;;;;37.63;34.45;;;23.90;99.90;;;;;;4843446;29;20037;-67
2023/06/21 07:55:11;;;;;;;36.00;32.97;;;23.90;99.90;;;;;;4839406;29;20048;-67
2023/06/21 07:57:38;;;;;;;44.25;40.45;;;24.00;99.90;;;;;;4843427;29;20075;-67
2023/06/21 08:00:09;;;;;;;35.60;32.58;;;23.90;99.90;;;;;;4835302;29;20068;-66
2023/06/21 08:02:41;;;;;;;47.28;42.97;;;23.80;99.90;;;;;;4834180;29;20127;-66
2023/06/21 08:05:07;;;;;;;38.42;35.17;;;23.70;99.90;;;;;;4813363;29;20051;-66
2023/06/21 08:07:34;;;;;;;44.35;40.47;;;23.90;99.90;;;;;;4835946;29;20037;-66
2023/06/21 08:10:00;;;;;;;39.85;36.50;;;24.20;99.90;;;;;;4835081;29;20064;-67
2023/06/21 08:12:26;;;;;;;35.40;32.50;;;24.20;99.90;;;;;;4862903;29;20041;-66
2023/06/21 08:14:53;;;;;;;39.78;36.15;;;24.10;99.90;;;;;;4840284;29;20737;-67
2023/06/21 08:17:19;;;;;;;33.75;30.92;;;24.10;99.90;;;;;;4833101;29;20501;-66
2023/06/21 08:19:46;;;;;;;33.58;30.67;;;24.30;99.90;;;;;;4836969;29;20048;-66
2023/06/21 08:22:12;;;;;;;33.90;31.10;;;24.50;99.90;;;;;;4836105;29;20045;-67
2023/06/21 08:24:38;;;;;;;32.88;30.15;;;24.80;99.90;;;;;;4827452;29;20048;-66
2023/06/21 08:27:05;;;;;;;30.90;28.38;;;25.00;99.90;;;;;;4835700;29;20715;-66
2023/06/21 08:29:31;;;;;;;31.50;28.77;;;25.30;99.90;;;;;;4838831;29;20544;-67
2023/06/21 08:31:57;;;;;;;32.33;29.58;;;25.40;99.90;;;;;;4846440;29;20040;-66
2023/06/21 08:34:24;;;;;;;26.25;24.02;;;25.50;99.90;;;;;;4841035;29;20040;-66
2023/06/21 08:36:50;;;;;;;25.20;23.20;;;25.80;99.90;;;;;;4819014;29;21094;-66
2023/06/21 08:39:16;;;;;;;30.27;27.77;;;26.10;99.90;;;;;;4834705;29;20938;-66
2023/06/21 08:41:43;;;;;;;28.15;25.63;;;26.10;99.90;;;;;;4836313;29;20044;-67
2023/06/21 08:44:10;;;;;;;21.90;20.00;;;25.90;99.90;;;;;;4829093;29;20485;-67
2023/06/21 08:46:37;;;;;;;21.77;20.08;;;25.90;99.90;;;;;;4828893;29;20037;-66
2023/06/21 08:49:05;;;;;;;24.02;21.95;;;26.00;99.90;;;;;;4840966;29;20608;-67
2023/06/21 08:51:38;;;;;;;19.05;17.48;;;26.00;99.90;;;;;;4844509;29;20032;-67
2023/06/21 08:54:08;;;;;;;23.83;21.80;;;25.80;99.90;;;;;;4821654;29;20041;-66
2023/06/21 08:57:04;;;;;;;21.80;20.00;;;25.60;99.90;;;;;;4832200;29;20053;-66
2023/06/21 08:59:59;;;;;;;20.15;18.55;;;25.70;99.90;;;;;;4825967;29;20053;-66
2023/06/21 09:02:48;;;;;;;19.27;17.67;;;25.90;99.90;;;;;;4832289;29;20774;-66
2023/06/21 09:05:22;;;;;;;18.05;16.55;;;26.10;99.90;;;;;;4824956;29;20045;-66
2023/06/21 09:07:50;;;;;;;16.85;15.38;;;26.40;99.90;;;;;;4839970;29;20528;-67
2023/06/21 09:10:20;;;;;;;25.10;22.80;;;26.30;99.90;;;;;;4843613;29;20412;-66
2023/06/21 09:12:49;;;;;;;20.65;18.70;;;26.20;99.90;;;;;;4840894;29;20751;-67
2023/06/21 09:15:15;;;;;;;12.43;11.43;;;26.20;99.90;;;;;;4829191;29;20843;-66
2023/06/21 09:17:44;;;;;;;12.85;11.85;;;26.30;99.90;;;;;;4835079;29;20048;-66
2023/06/21 09:20:11;;;;;;;11.55;10.65;;;26.40;99.90;;;;;;4835214;29;20053;-67
2023/06/21 09:22:38;;;;;;;11.98;10.98;;;26.60;99.90;;;;;;4834883;29;20052;-67
2023/06/21 09:25:05;;;;;;;9.82;9.02;;;26.70;99.90;;;;;;4828252;29;20495;-66
2023/06/21 09:27:31;;;;;;;8.20;7.50;;;26.80;99.90;;;;;;4843302;29;20107;-66
2023/06/21 09:29:57;;;;;;;10.73;9.82;;;26.80;99.90;;;;;;4844071;29;20033;-66
2023/06/21 09:32:24;;;;;;;7.80;7.20;;;27.00;99.90;;;;;;4835023;29;20348;-66
2023/06/21 09:34:51;;;;;;;6.00;5.47;;;27.10;99.90;;;;;;4826511;29;20048;-66
2023/06/21 09:37:33;;;;;;;8.75;6.70;;;27.30;99.90;;;;;;4834846;29;20033;-67
2023/06/21 09:40:01;;;;;;;4.25;3.95;;;27.50;99.90;;;;;;4832690;29;20607;-66
2023/06/21 09:42:27;;;;;;;5.63;5.22;;;27.60;99.90;;;;;;4831084;29;20037;-66
2023/06/21 09:44:54;;;;;;;5.20;4.80;;;27.80;99.90;;;;;;4835485;29;20041;-66
2023/06/21 09:47:21;;;;;;;5.38;4.90;;;28.00;99.90;;;;;;4841804;29;20052;-67
2023/06/21 09:49:48;;;;;;;5.63;5.10;;;28.20;99.90;;;;;;4808417;29;20049;-67
2023/06/21 09:52:17;;;;;;;5.60;5.20;;;28.40;99.90;;;;;;4834826;29;20047;-67
2023/06/21 09:54:44;;;;;;;3.95;3.60;;;28.50;99.90;;;;;;4827147;29;20033;-67
2023/06/21 09:57:10;;;;;;;5.10;4.35;;;28.40;99.90;;;;;;4816736;29;20452;-67
2023/06/21 09:59:38;;;;;;;4.07;3.67;;;28.40;99.90;;;;;;4832991;29;20040;-66
2023/06/21 10:02:07;;;;;;;3.05;2.75;;;28.50;99.90;;;;;;4837680;29;20040;-67
2023/06/21 10:04:44;;;;;;;3.30;1.77;;;28.50;99.90;;;;;;4836804;29;20041;-67
2023/06/21 10:07:14;;;;;;;2.40;1.85;;;28.70;99.90;;;;;;4840709;29;20657;-67
2023/06/21 10:09:41;;;;;;;3.65;2.17;;;28.90;99.90;;;;;;4832722;29;20059;-66
2023/06/21 10:12:11;;;;;;;2.58;1.60;;;29.10;99.90;;;;;;4833728;29;20041;-66
2023/06/21 10:14:39;;;;;;;2.20;1.67;;;29.30;99.90;;;;;;4827699;29;20701;-66
2023/06/21 10:17:06;;;;;;;2.90;2.08;;;29.40;99.90;;;;;;4829110;29;20044;-66
2023/06/21 10:19:34;;;;;;;3.50;2.80;;;29.60;99.90;;;;;;4815434;29;20055;-66
2023/06/21 10:22:20;;;;;;;4.43;3.65;;;29.60;99.90;;;;;;4839707;29;20052;-67
2023/06/21 10:24:51;;;;;;;4.10;3.65;;;29.50;99.90;;;;;;4837719;29;20551;-67
2023/06/21 10:27:19;;;;;;;2.28;2.08;;;29.30;99.90;;;;;;4837906;29;20366;-67
2023/06/21 10:29:54;;;;;;;2.72;2.30;;;29.30;99.90;;;;;;4833553;29;20048;-67
2023/06/21 10:32:21;;;;;;;3.58;2.17;;;29.60;99.90;;;;;;4818557;29;20029;-67
2023/06/21 10:34:58;;;;;;;4.70;4.25;;;29.80;99.90;;;;;;4827518;29;20045;-68
2023/06/21 10:37:36;;;;;;;3.00;2.58;;;30.00;99.90;;;;;;4832155;29;20909;-68
2023/06/21 10:40:07;;;;;;;2.67;1.73;;;30.10;99.90;;;;;;4832334;29;20050;-67
2023/06/21 10:42:35;;;;;;;2.92;2.42;;;30.10;99.90;;;;;;4835672;29;20040;-67
2023/06/21 10:45:04;;;;;;;3.20;2.70;;;30.10;99.30;;;;;;4841910;29;20583;-68
2023/06/21 10:47:32;;;;;;;2.38;1.92;;;30.20;98.10;;;;;;4847028;29;20048;-67
2023/06/21 10:50:01;;;;;;;1.40;1.20;;;30.20;97.60;;;;;;4839939;29;20385;-68
2023/06/21 10:52:30;;;;;;;3.78;1.45;;;30.40;98.00;;;;;;4822323;29;20056;-68
2023/06/21 10:54:57;;;;;;;3.38;1.92;;;30.70;97.70;;;;;;4829594;29;20434;-66
2023/06/21 10:57:31;;;;;;;3.55;2.30;;;30.90;96.80;;;;;;4819968;29;20037;-68
2023/06/21 11:00:01;;;;;;;2.50;1.95;;;31.30;96.70;;;;;;4837111;29;20394;-67
2023/06/21 11:02:28;;;;;;;4.32;1.60;;;31.70;96.40;;;;;;4836258;29;20033;-67
2023/06/21 11:05:13;;;;;;;2.65;1.10;;;31.90;94.80;;;;;;4830470;29;20519;-67
2023/06/21 11:08:04;;;;;;;2.22;1.25;;;31.90;93.80;;;;;;4842019;29;20049;-67
2023/06/21 11:10:49;;;;;;;3.15;1.63;;;32.10;93.50;;;;;;4847302;29;20025;-68
2023/06/21 11:13:32;;;;;;;2.20;1.30;;;32.40;92.40;;;;;;4840134;29;20392;-67
2023/06/21 11:16:13;;;;;;;2.63;1.30;;;32.70;91.80;;;;;;4832511;29;20049;-68
2023/06/21 11:18:42;;;;;;;1.70;1.00;;;32.90;90.90;;;;;;4834734;29;20043;-67
2023/06/21 11:21:08;;;;;;;2.50;1.25;;;33.10;90.60;;;;;;4837804;29;20369;-67
2023/06/21 11:23:55;;;;;;;2.60;1.45;;;33.50;90.00;;;;;;4816996;29;20045;-67
2023/06/21 11:26:22;;;;;;;2.85;1.40;;;33.80;88.30;;;;;;4838954;29;20049;-67
2023/06/21 11:28:49;;;;;;;2.42;1.50;;;34.00;86.90;;;;;;4844192;29;20052;-68
2023/06/21 11:31:17;;;;;;;1.52;1.17;;;34.30;86.40;;;;;;4844855;29;20030;-67
2023/06/21 11:33:53;;;;;;;4.43;1.48;;;34.60;83.80;;;;;;4832075;29;20164;-67
2023/06/21 11:36:31;;;;;;;2.60;1.25;;;34.90;82.30;;;;;;4832400;29;20037;-68
2023/06/21 11:39:03;;;;;;;4.18;2.05;;;35.20;80.10;;;;;;4836250;29;20045;-67
2023/06/21 11:41:57;;;;;;;2.08;1.30;;;35.50;78.80;;;;;;4835341;29;20060;-67
2023/06/21 11:44:26;;;;;;;2.08;1.17;;;35.50;76.80;;;;;;4836098;29;20029;-67
2023/06/21 11:47:15;;;;;;;3.88;1.10;;;35.30;76.60;;;;;;4845589;29;20500;-67
2023/06/21 11:49:51;;;;;;;2.83;1.30;;;35.70;75.90;;;;;;4847652;29;20040;-67
2023/06/21 11:52:23;;;;;;;2.22;1.40;;;36.10;74.60;;;;;;4836653;29;20041;-67
2023/06/21 11:54:50;;;;;;;3.20;1.20;;;36.50;72.70;;;;;;4835433;29;20037;-68
2023/06/21 11:57:16;;;;;;;2.67;1.52;;;36.70;71.90;;;;;;4817563;29;20397;-67
2023/06/21 11:59:43;;;;;;;2.40;1.35;;;37.10;71.70;;;;;;4837270;29;20029;-67
2023/06/21 12:02:14;;;;;;;2.25;1.20;;;36.90;70.00;;;;;;4839125;29;20523;-67
2023/06/21 12:04:42;;;;;;;1.60;1.10;;;36.40;70.20;;;;;;4837792;29;20581;-67
2023/06/21 12:07:09;;;;;;;3.83;1.08;;;36.10;69.60;;;;;;4844248;29;20041;-68
2023/06/21 12:09:38;;;;;;;1.85;1.10;;;36.20;69.60;;;;;;4847116;29;20044;-67
2023/06/21 12:12:09;;;;;;;3.35;1.42;;;36.60;68.60;;;;;;4837328;29;20045;-76
2023/06/21 12:14:36;;;;;;;1.80;0.85;;;36.60;66.50;;;;;;4833667;29;20356;-71
2023/06/21 12:17:03;;;;;;;1.92;1.13;;;36.70;66.40;;;;;;4835894;29;20037;-69
2023/06/21 12:19:31;;;;;;;3.35;3.05;;;37.20;66.00;;;;;;4837642;29;20037;-70
2023/06/21 12:22:01;;;;;;;1.60;1.38;;;37.50;65.50;;;;;;4837059;29;20045;-70
2023/06/21 12:24:28;;;;;;;2.35;1.75;;;37.80;64.00;;;;;;4842214;29;20037;-70
2023/06/21 12:26:57;;;;;;;2.55;1.40;;;38.10;64.20;;;;;;4844262;29;20040;-71
2023/06/21 12:29:27;;;;;;;2.72;1.35;;;38.40;63.10;;;;;;4845017;29;20082;-70
2023/06/21 12:31:56;;;;;;;2.42;1.10;;;38.40;61.80;;;;;;4836697;29;20031;-71
2023/06/21 12:34:24;;;;;;;1.92;0.90;;;37.70;61.00;;;;;;4832440;29;20041;-71
2023/06/21 12:36:54;;;;;;;5.93;5.13;;;37.30;61.00;;;;;;4833775;29;20045;-70
2023/06/21 12:39:21;;;;;;;2.00;1.05;;;37.40;60.80;;;;;;4837296;29;20037;-69
2023/06/21 12:41:48;;;;;;;1.98;1.20;;;37.70;59.70;;;;;;4838617;29;20049;-71